sensor_id;sensor_type;location;lat;lon;timestamp;P1;durP1;ratioP1;P2;durP2;ratioP2
32329;SDS011;18807;52.434;13.238;2024-02-15T00:05:45;5.90;;;4.50;;
32329;SDS011;18807;52.434;13.238;2024-02-15T00:13:21;4.72;;;3.95;;
32329;SDS011;18807;52.434;13.238;2024-02-15T00:20:57;5.50;;;4.03;;
32329;SDS011;18807;52.434;13.238;2024-02-15T00:28:32;7.47;;;5.28;;
32329;SDS011;18807;52.434;13.238;2024-02-15T00:36:08;10.07;;;7.10;;
32329;SDS011;18807;52.434;13.238;2024-02-15T00:43:42;9.98;;;6.50;;
32329;SDS011;18807;52.434;13.238;2024-02-15T00:51:18;8.67;;;5.63;;
32329;SDS011;18807;52.434;13.238;2024-02-15T00:58:52;7.88;;;6.10;;
32329;SDS011;18807;52.434;13.238;2024-02-15T01:06:28;12.17;;;7.73;;
32329;SDS011;18807;52.434;13.238;2024-02-15T01:14:02;8.75;;;5.90;;
32329;SDS011;18807;52.434;13.238;2024-02-15T01:21:38;11.73;;;7.15;;
32329;SDS011;18807;52.434;13.238;2024-02-15T01:29:12;9.93;;;6.97;;
32329;SDS011;18807;52.434;13.238;2024-02-15T01:36:52;11.53;;;8.20;;
32329;SDS011;18807;52.434;13.238;2024-02-15T01:44:26;10.30;;;7.47;;
32329;SDS011;18807;52.434;13.238;2024-02-15T01:52:04;11.02;;;7.80;;
32329;SDS011;18807;52.434;13.238;2024-02-15T01:59:40;10.98;;;7.95;;
32329;SDS011;18807;52.434;13.238;2024-02-15T02:07:16;12.10;;;8.33;;
32329;SDS011;18807;52.434;13.238;2024-02-15T02:14:50;13.10;;;8.57;;
32329;SDS011;18807;52.434;13.238;2024-02-15T02:22:26;12.00;;;8.73;;
32329;SDS011;18807;52.434;13.238;2024-02-15T02:30:12;12.80;;;9.20;;
32329;SDS011;18807;52.434;13.238;2024-02-15T02:37:47;14.07;;;9.65;;
32329;SDS011;18807;52.434;13.238;2024-02-15T02:45:23;14.37;;;8.87;;
32329;SDS011;18807;52.434;13.238;2024-02-15T02:52:57;16.42;;;9.98;;
32329;SDS011;18807;52.434;13.238;2024-02-15T03:00:33;13.85;;;9.38;;
32329;SDS011;18807;52.434;13.238;2024-02-15T03:08:08;12.52;;;9.07;;
32329;SDS011;18807;52.434;13.238;2024-02-15T03:15:46;13.05;;;8.98;;
32329;SDS011;18807;52.434;13.238;2024-02-15T03:23:20;14.52;;;9.73;;
32329;SDS011;18807;52.434;13.238;2024-02-15T03:30:58;13.65;;;9.77;;
32329;SDS011;18807;52.434;13.238;2024-02-15T03:38:33;13.88;;;8.77;;
32329;SDS011;18807;52.434;13.238;2024-02-15T03:46:08;14.57;;;9.77;;
32329;SDS011;18807;52.434;13.238;2024-02-15T03:53:45;12.20;;;8.07;;
32329;SDS011;18807;52.434;13.238;2024-02-15T04:01:21;16.70;;;10.23;;
32329;SDS011;18807;52.434;13.238;2024-02-15T04:08:56;15.70;;;9.73;;
32329;SDS011;18807;52.434;13.238;2024-02-15T04:16:33;15.43;;;10.63;;
32329;SDS011;18807;52.434;13.238;2024-02-15T04:24:10;16.48;;;9.25;;
32329;SDS011;18807;52.434;13.238;2024-02-15T04:31:46;14.17;;;9.90;;
32329;SDS011;18807;52.434;13.238;2024-02-15T04:39:22;13.10;;;9.07;;
32329;SDS011;18807;52.434;13.238;2024-02-15T04:47:01;15.32;;;8.57;;
32329;SDS011;18807;52.434;13.238;2024-02-15T04:54:36;14.48;;;9.52;;
32329;SDS011;18807;52.434;13.238;2024-02-15T05:02:14;13.73;;;9.00;;
32329;SDS011;18807;52.434;13.238;2024-02-15T05:09:50;11.63;;;7.88;;
32329;SDS011;18807;52.434;13.238;2024-02-15T05:17:26;13.60;;;8.35;;
32329;SDS011;18807;52.434;13.238;2024-02-15T05:25:02;11.85;;;7.75;;
32329;SDS011;18807;52.434;13.238;2024-02-15T05:32:39;13.40;;;8.05;;
32329;SDS011;18807;52.434;13.238;2024-02-15T05:40:16;13.40;;;8.35;;
32329;SDS011;18807;52.434;13.238;2024-02-15T05:47:53;11.35;;;7.88;;
32329;SDS011;18807;52.434;13.238;2024-02-15T05:55:28;13.95;;;8.70;;
32329;SDS011;18807;52.434;13.238;2024-02-15T06:03:05;13.02;;;7.60;;
32329;SDS011;18807;52.434;13.238;2024-02-15T06:10:41;14.05;;;8.88;;
32329;SDS011;18807;52.434;13.238;2024-02-15T06:18:17;12.23;;;8.13;;
32329;SDS011;18807;52.434;13.238;2024-02-15T06:25:54;14.50;;;8.75;;
32329;SDS011;18807;52.434;13.238;2024-02-15T06:33:30;11.45;;;7.38;;
32329;SDS011;18807;52.434;13.238;2024-02-15T06:41:21;17.05;;;9.38;;
32329;SDS011;18807;52.434;13.238;2024-02-15T06:49:01;11.80;;;7.80;;
32329;SDS011;18807;52.434;13.238;2024-02-15T06:56:38;13.23;;;8.52;;
32329;SDS011;18807;52.434;13.238;2024-02-15T07:04:13;14.30;;;8.27;;
32329;SDS011;18807;52.434;13.238;2024-02-15T07:11:48;11.50;;;7.53;;
32329;SDS011;18807;52.434;13.238;2024-02-15T07:19:25;11.98;;;7.82;;
32329;SDS011;18807;52.434;13.238;2024-02-15T07:27:00;11.13;;;7.38;;
32329;SDS011;18807;52.434;13.238;2024-02-15T07:34:35;12.48;;;7.55;;
32329;SDS011;18807;52.434;13.238;2024-02-15T07:42:10;12.02;;;7.95;;
32329;SDS011;18807;52.434;13.238;2024-02-15T07:49:46;11.00;;;7.70;;
32329;SDS011;18807;52.434;13.238;2024-02-15T07:57:21;11.05;;;7.57;;
32329;SDS011;18807;52.434;13.238;2024-02-15T08:04:57;13.50;;;7.95;;
32329;SDS011;18807;52.434;13.238;2024-02-15T08:12:32;13.70;;;8.85;;
32329;SDS011;18807;52.434;13.238;2024-02-15T08:20:09;11.73;;;8.37;;
32329;SDS011;18807;52.434;13.238;2024-02-15T08:27:47;14.32;;;8.10;;
32329;SDS011;18807;52.434;13.238;2024-02-15T08:35:24;11.15;;;7.55;;
32329;SDS011;18807;52.434;13.238;2024-02-15T08:42:59;9.10;;;5.90;;
32329;SDS011;18807;52.434;13.238;2024-02-15T08:50:34;12.03;;;7.17;;
32329;SDS011;18807;52.434;13.238;2024-02-15T08:58:08;10.80;;;6.70;;
32329;SDS011;18807;52.434;13.238;2024-02-15T09:05:44;14.00;;;7.97;;
32329;SDS011;18807;52.434;13.238;2024-02-15T09:13:19;11.27;;;7.03;;
32329;SDS011;18807;52.434;13.238;2024-02-15T09:20:54;10.97;;;7.90;;
32329;SDS011;18807;52.434;13.238;2024-02-15T09:28:29;11.40;;;6.80;;
32329;SDS011;18807;52.434;13.238;2024-02-15T09:36:05;10.43;;;6.80;;
32329;SDS011;18807;52.434;13.238;2024-02-15T09:43:39;11.95;;;7.13;;
32329;SDS011;18807;52.434;13.238;2024-02-15T09:51:14;13.17;;;6.73;;
32329;SDS011;18807;52.434;13.238;2024-02-15T09:58:49;8.40;;;5.32;;
32329;SDS011;18807;52.434;13.238;2024-02-15T10:06:25;10.70;;;7.30;;
32329;SDS011;18807;52.434;13.238;2024-02-15T10:14:09;10.68;;;6.03;;
32329;SDS011;18807;52.434;13.238;2024-02-15T10:21:46;8.40;;;5.70;;
32329;SDS011;18807;52.434;13.238;2024-02-15T10:29:20;6.25;;;4.47;;
32329;SDS011;18807;52.434;13.238;2024-02-15T10:36:57;7.13;;;5.13;;
32329;SDS011;18807;52.434;13.238;2024-02-15T10:44:43;7.20;;;4.70;;
32329;SDS011;18807;52.434;13.238;2024-02-15T10:52:20;7.28;;;4.30;;
32329;SDS011;18807;52.434;13.238;2024-02-15T10:59:55;5.88;;;4.05;;
32329;SDS011;18807;52.434;13.238;2024-02-15T11:07:32;4.90;;;3.05;;
32329;SDS011;18807;52.434;13.238;2024-02-15T11:15:07;6.40;;;3.25;;
32329;SDS011;18807;52.434;13.238;2024-02-15T11:22:46;4.70;;;3.15;;
32329;SDS011;18807;52.434;13.238;2024-02-15T11:30:31;4.25;;;3.30;;
32329;SDS011;18807;52.434;13.238;2024-02-15T11:38:08;6.72;;;4.13;;
32329;SDS011;18807;52.434;13.238;2024-02-15T11:45:48;5.80;;;3.47;;
32329;SDS011;18807;52.434;13.238;2024-02-15T11:53:26;2.58;;;2.20;;
32329;SDS011;18807;52.434;13.238;2024-02-15T12:01:17;7.45;;;3.22;;
32329;SDS011;18807;52.434;13.238;2024-02-15T12:09:15;3.35;;;2.15;;
32329;SDS011;18807;52.434;13.238;2024-02-15T12:17:09;3.53;;;2.30;;
32329;SDS011;18807;52.434;13.238;2024-02-15T12:25:04;2.55;;;2.03;;
32329;SDS011;18807;52.434;13.238;2024-02-15T12:32:44;4.40;;;2.10;;
32329;SDS011;18807;52.434;13.238;2024-02-15T12:40:22;3.65;;;2.60;;
32329;SDS011;18807;52.434;13.238;2024-02-15T12:47:57;3.83;;;2.10;;
32329;SDS011;18807;52.434;13.238;2024-02-15T12:55:34;2.53;;;2.17;;
32329;SDS011;18807;52.434;13.238;2024-02-15T13:03:11;2.58;;;2.20;;
32329;SDS011;18807;52.434;13.238;2024-02-15T13:10:49;8.57;;;3.30;;
32329;SDS011;18807;52.434;13.238;2024-02-15T13:18:24;3.70;;;2.50;;
32329;SDS011;18807;52.434;13.238;2024-02-15T13:26:00;2.78;;;2.28;;
32329;SDS011;18807;52.434;13.238;2024-02-15T13:33:37;3.67;;;2.85;;
32329;SDS011;18807;52.434;13.238;2024-02-15T13:41:14;4.50;;;2.42;;
32329;SDS011;18807;52.434;13.238;2024-02-15T13:48:48;4.13;;;2.42;;
32329;SDS011;18807;52.434;13.238;2024-02-15T14:03:58;5.00;;;3.92;;
32329;SDS011;18807;52.434;13.238;2024-02-15T14:11:32;4.70;;;3.42;;
32329;SDS011;18807;52.434;13.238;2024-02-15T14:19:09;4.20;;;2.80;;
32329;SDS011;18807;52.434;13.238;2024-02-15T14:26:45;5.10;;;4.03;;
32329;SDS011;18807;52.434;13.238;2024-02-15T14:34:22;4.80;;;3.40;;
32329;SDS011;18807;52.434;13.238;2024-02-15T14:41:57;5.10;;;3.10;;
32329;SDS011;18807;52.434;13.238;2024-02-15T14:50:09;4.50;;;2.75;;
32329;SDS011;18807;52.434;13.238;2024-02-15T14:57:50;5.00;;;2.95;;
32329;SDS011;18807;52.434;13.238;2024-02-15T15:05:36;3.60;;;2.92;;
32329;SDS011;18807;52.434;13.238;2024-02-15T15:13:28;2.55;;;1.83;;
32329;SDS011;18807;52.434;13.238;2024-02-15T15:21:05;4.32;;;2.50;;
32329;SDS011;18807;52.434;13.238;2024-02-15T15:28:41;2.42;;;2.03;;
32329;SDS011;18807;52.434;13.238;2024-02-15T15:36:17;4.37;;;2.20;;
32329;SDS011;18807;52.434;13.238;2024-02-15T15:43:52;4.25;;;1.90;;
32329;SDS011;18807;52.434;13.238;2024-02-15T15:51:28;4.13;;;2.80;;
32329;SDS011;18807;52.434;13.238;2024-02-15T15:59:02;3.40;;;2.35;;
32329;SDS011;18807;52.434;13.238;2024-02-15T16:06:40;5.25;;;2.35;;
32329;SDS011;18807;52.434;13.238;2024-02-15T16:14:14;5.30;;;2.85;;
32329;SDS011;18807;52.434;13.238;2024-02-15T16:21:53;5.40;;;3.80;;
32329;SDS011;18807;52.434;13.238;2024-02-15T16:29:28;5.53;;;3.28;;
32329;SDS011;18807;52.434;13.238;2024-02-15T16:37:06;5.15;;;2.83;;
32329;SDS011;18807;52.434;13.238;2024-02-15T16:44:40;5.25;;;2.60;;
32329;SDS011;18807;52.434;13.238;2024-02-15T16:52:16;3.20;;;2.90;;
32329;SDS011;18807;52.434;13.238;2024-02-15T16:59:50;3.70;;;2.60;;
32329;SDS011;18807;52.434;13.238;2024-02-15T17:07:26;4.43;;;2.80;;
32329;SDS011;18807;52.434;13.238;2024-02-15T17:15:01;4.45;;;3.08;;
32329;SDS011;18807;52.434;13.238;2024-02-15T17:22:43;3.72;;;2.70;;
32329;SDS011;18807;52.434;13.238;2024-02-15T17:30:18;4.72;;;2.80;;
32329;SDS011;18807;52.434;13.238;2024-02-15T17:37:53;3.58;;;2.78;;
32329;SDS011;18807;52.434;13.238;2024-02-15T17:45:27;4.03;;;3.15;;
32329;SDS011;18807;52.434;13.238;2024-02-15T17:53:04;4.73;;;2.93;;
32329;SDS011;18807;52.434;13.238;2024-02-15T18:00:37;2.83;;;2.60;;
32329;SDS011;18807;52.434;13.238;2024-02-15T18:08:15;6.30;;;3.17;;
32329;SDS011;18807;52.434;13.238;2024-02-15T18:15:50;5.03;;;3.00;;
32329;SDS011;18807;52.434;13.238;2024-02-15T18:23:26;4.80;;;3.50;;
32329;SDS011;18807;52.434;13.238;2024-02-15T18:31:00;5.55;;;3.88;;
32329;SDS011;18807;52.434;13.238;2024-02-15T18:46:45;4.32;;;3.42;;
32329;SDS011;18807;52.434;13.238;2024-02-15T18:54:21;5.15;;;3.00;;
32329;SDS011;18807;52.434;13.238;2024-02-15T19:01:58;3.40;;;2.97;;
32329;SDS011;18807;52.434;13.238;2024-02-15T19:09:50;4.60;;;3.20;;
32329;SDS011;18807;52.434;13.238;2024-02-15T19:17:26;3.63;;;2.70;;
32329;SDS011;18807;52.434;13.238;2024-02-15T19:25:00;4.10;;;3.17;;
32329;SDS011;18807;52.434;13.238;2024-02-15T19:32:36;5.82;;;3.80;;
32329;SDS011;18807;52.434;13.238;2024-02-15T19:40:11;3.60;;;3.22;;
32329;SDS011;18807;52.434;13.238;2024-02-15T19:47:53;4.78;;;3.55;;
32329;SDS011;18807;52.434;13.238;2024-02-15T19:55:29;5.28;;;3.03;;
32329;SDS011;18807;52.434;13.238;2024-02-15T20:03:06;5.20;;;3.60;;
32329;SDS011;18807;52.434;13.238;2024-02-15T20:10:40;9.27;;;4.50;;
32329;SDS011;18807;52.434;13.238;2024-02-15T20:18:16;8.07;;;5.07;;
32329;SDS011;18807;52.434;13.238;2024-02-15T20:25:50;7.00;;;4.80;;
32329;SDS011;18807;52.434;13.238;2024-02-15T20:33:26;9.20;;;5.43;;
32329;SDS011;18807;52.434;13.238;2024-02-15T20:41:01;6.50;;;5.30;;
32329;SDS011;18807;52.434;13.238;2024-02-15T20:48:39;7.68;;;5.40;;
32329;SDS011;18807;52.434;13.238;2024-02-15T20:56:14;5.90;;;4.50;;
32329;SDS011;18807;52.434;13.238;2024-02-15T21:11:24;8.32;;;4.63;;
32329;SDS011;18807;52.434;13.238;2024-02-15T21:18:58;5.30;;;3.78;;
32329;SDS011;18807;52.434;13.238;2024-02-15T21:26:41;4.50;;;3.55;;
32329;SDS011;18807;52.434;13.238;2024-02-15T21:34:16;6.18;;;4.13;;
32329;SDS011;18807;52.434;13.238;2024-02-15T21:41:52;5.57;;;4.10;;
32329;SDS011;18807;52.434;13.238;2024-02-15T21:49:27;5.18;;;4.20;;
32329;SDS011;18807;52.434;13.238;2024-02-15T21:57:05;5.85;;;4.28;;
32329;SDS011;18807;52.434;13.238;2024-02-15T22:04:42;4.18;;;3.42;;
32329;SDS011;18807;52.434;13.238;2024-02-15T22:12:19;4.47;;;4.00;;
32329;SDS011;18807;52.434;13.238;2024-02-15T22:19:56;5.97;;;4.25;;
32329;SDS011;18807;52.434;13.238;2024-02-15T22:27:34;5.93;;;4.20;;
32329;SDS011;18807;52.434;13.238;2024-02-15T22:35:08;6.63;;;4.78;;
32329;SDS011;18807;52.434;13.238;2024-02-15T22:42:44;5.83;;;4.03;;
32329;SDS011;18807;52.434;13.238;2024-02-15T22:50:18;4.45;;;3.50;;
32329;SDS011;18807;52.434;13.238;2024-02-15T22:57:55;12.38;;;4.20;;
32329;SDS011;18807;52.434;13.238;2024-02-15T23:05:31;4.88;;;3.63;;
32329;SDS011;18807;52.434;13.238;2024-02-15T23:13:08;6.05;;;4.75;;
32329;SDS011;18807;52.434;13.238;2024-02-15T23:20:43;4.95;;;4.45;;
32329;SDS011;18807;52.434;13.238;2024-02-15T23:28:19;4.93;;;4.40;;
32329;SDS011;18807;52.434;13.238;2024-02-15T23:35:53;5.60;;;4.25;;
32329;SDS011;18807;52.434;13.238;2024-02-15T23:43:46;7.32;;;4.90;;
32329;SDS011;18807;52.434;13.238;2024-02-15T23:51:21;4.72;;;3.45;;
32329;SDS011;18807;52.434;13.238;2024-02-15T23:58:57;6.13;;;4.13;;
